Time;durP1;ratioP1;P1;durP2;ratioP2;P2;SDS_P1;SDS_P2;PMS_P1;PMS_P2;Temp;Humidity;BMP_temperature;BMP_pressure;BME280_temperature;BME280_humidity;BME280_pressure;Samples;Min_cycle;Max_cycle;Signal;HPM_P1;HPM_P2
2022/01/01 00:01:41;;;;;;;12.20;11.15;;;;;;;10.14;81.63;99658.13;4095237;28;20207;-51
2022/01/01 00:03:44;;;;;;;11.38;10.57;;;;;;;10.16;80.99;99663.38;4094719;28;20512;-51
2022/01/01 00:05:51;;;;;;;12.38;11.40;;;;;;;10.20;81.16;99654.50;4097139;28;20754;-51
2022/01/01 00:07:53;;;;;;;13.93;12.77;;;;;;;10.12;81.51;99662.13;4093320;28;20772;-51
2022/01/01 00:09:59;;;;;;;12.93;12.02;;;;;;;10.10;81.52;99656.91;4108639;28;20210;-51
2022/01/01 00:12:11;;;;;;;12.85;11.80;;;;;;;10.07;81.56;99657.31;4082269;28;20212;-51
2022/01/01 00:14:13;;;;;;;13.00;11.77;;;;;;;10.19;81.27;99657.47;4094786;28;20249;-50
2022/01/01 00:16:19;;;;;;;12.30;11.30;;;;;;;10.17;81.41;99654.13;4095780;28;20199;-49
2022/01/01 00:18:20;;;;;;;12.60;11.55;;;;;;;10.20;81.30;99659.13;4094267;28;20242;-52
2022/01/01 00:20:22;;;;;;;13.85;12.43;;;;;;;10.20;81.13;99659.13;4094675;28;20584;-51
2022/01/01 00:22:24;;;;;;;12.10;11.10;;;;;;;10.12;81.43;99656.66;4097952;28;20743;-50
2022/01/01 00:24:26;;;;;;;12.77;11.70;;;;;;;10.18;81.27;99653.06;4120874;28;20288;-54
2022/01/01 00:26:28;;;;;;;11.63;10.65;;;;;;;10.20;81.15;99648.19;4090820;28;20250;-49
2022/01/01 00:28:30;;;;;;;13.25;12.25;;;;;;;10.17;81.38;99654.13;4126506;28;20689;-53
2022/01/01 00:30:31;;;;;;;13.25;12.02;;;;;;;10.15;81.47;99645.31;4122323;28;20229;-52
2022/01/01 00:32:37;;;;;;;13.85;12.55;;;;;;;10.09;81.63;99646.19;4108894;28;20603;-52
2022/01/01 00:34:38;;;;;;;13.95;12.38;;;;;;;10.10;81.50;99643.22;4107139;28;20199;-52
2022/01/01 00:36:40;;;;;;;16.65;15.32;;;;;;;10.03;81.91;99641.53;4104497;28;20237;-52
2022/01/01 00:38:42;;;;;;;15.57;14.30;;;;;;;10.04;81.71;99644.09;4107620;28;20660;-52
2022/01/01 00:40:44;;;;;;;15.05;13.75;;;;;;;10.04;81.55;99643.25;4123462;28;20214;-53
2022/01/01 00:42:46;;;;;;;15.40;14.20;;;;;;;10.02;81.80;99634.41;4110106;28;20207;-52
2022/01/01 00:44:48;;;;;;;15.80;14.50;;;;;;;10.06;81.67;99624.72;4122779;28;20238;-51
2022/01/01 00:46:58;;;;;;;14.65;13.55;;;;;;;10.04;81.73;99632.31;4105859;28;20293;-52
2022/01/01 00:48:59;;;;;;;16.83;15.32;;;;;;;10.00;81.56;99625.56;4107988;28;20227;-53
2022/01/01 00:51:01;;;;;;;17.90;16.38;;;;;;;10.11;81.73;99633.97;4106931;28;20234;-53
2022/01/01 00:53:03;;;;;;;17.10;15.73;;;;;;;10.07;81.42;99620.97;4103182;28;20273;-53
2022/01/01 00:55:05;;;;;;;19.73;16.17;;;;;;;10.17;81.44;99616.69;4125409;28;20214;-55
2022/01/01 00:57:07;;;;;;;17.20;15.35;;;;;;;10.11;81.53;99627.63;4109857;28;21018;-52
2022/01/01 00:59:09;;;;;;;18.73;16.98;;;;;;;10.11;81.71;99627.63;4124071;28;20234;-55
2022/01/01 01:01:10;;;;;;;18.80;17.17;;;;;;;10.15;81.45;99639.84;4123421;28;20217;-52
2022/01/01 01:03:14;;;;;;;19.15;17.42;;;;;;;10.16;81.29;99627.81;4119474;28;20206;-52
2022/01/01 01:05:16;;;;;;;17.30;15.80;;;;;;;10.17;81.55;99621.28;4104520;28;20372;-53
2022/01/01 01:07:18;;;;;;;19.33;17.75;;;;;;;10.16;81.62;99630.56;4118825;28;20794;-51
2022/01/01 01:09:20;;;;;;;18.08;16.58;;;;;;;10.20;81.31;99620.84;4107007;28;20235;-53
2022/01/01 01:11:21;;;;;;;19.65;17.90;;;;;;;10.21;81.30;99622.53;4106965;28;20210;-55
2022/01/01 01:13:26;;;;;;;19.20;17.35;;;;;;;10.08;81.42;99617.16;4110310;28;20317;-53
2022/01/01 01:15:30;;;;;;;19.85;18.13;;;;;;;10.21;81.27;99615.16;4109070;28;21082;-52
2022/01/01 01:17:32;;;;;;;20.00;18.13;;;;;;;10.17;81.29;99621.28;4094543;28;20231;-52
2022/01/01 01:19:35;;;;;;;17.35;15.95;;;;;;;10.15;81.54;99626.16;4108192;28;20297;-53
2022/01/01 01:21:36;;;;;;;17.60;16.02;;;;;;;10.20;81.16;99620.84;4110216;28;20203;-52
2022/01/01 01:23:38;;;;;;;20.65;18.75;;;;;;;10.10;81.35;99615.03;4110256;28;20519;-51
2022/01/01 01:25:41;;;;;;;18.00;16.60;;;;;;;10.11;81.35;99611.22;4109352;28;20211;-52
2022/01/01 01:27:42;;;;;;;19.42;17.88;;;;;;;10.21;81.38;99617.06;4111477;28;20231;-52
2022/01/01 01:29:45;;;;;;;18.88;17.15;;;;;;;10.15;81.38;99612.47;4127394;28;20260;-52
2022/01/01 01:31:47;;;;;;;19.33;17.70;;;;;;;10.11;81.61;99617.56;4111641;28;20685;-51
2022/01/01 01:33:49;;;;;;;20.73;18.70;;;;;;;10.20;81.20;99615.38;4125099;28;20826;-52
2022/01/01 01:35:50;;;;;;;19.98;18.00;;;;;;;10.22;81.27;99625.03;4127784;28;20206;-52
2022/01/01 01:37:52;;;;;;;20.88;18.75;;;;;;;10.19;81.33;99632.84;4125907;28;20630;-51
2022/01/01 01:39:54;;;;;;;20.13;18.27;;;;;;;10.15;81.29;99623.41;4109186;28;20261;-51
2022/01/01 01:41:55;;;;;;;21.33;19.33;;;;;;;10.13;81.50;99631.84;4125981;28;20294;-52
2022/01/01 01:43:58;;;;;;;21.58;19.60;;;;;;;10.25;81.02;99634.69;4122130;28;20268;-51
2022/01/01 01:46:04;;;;;;;22.67;20.23;;;;;;;10.25;81.09;99623.75;4106326;28;20216;-52
2022/01/01 01:48:06;;;;;;;20.75;18.88;;;;;;;10.19;81.39;99624.63;4104112;28;20318;-52
2022/01/01 01:50:10;;;;;;;22.55;20.67;;;;;;;10.15;81.31;99634.34;4106453;28;20672;-52
2022/01/01 01:52:12;;;;;;;20.95;19.15;;;;;;;10.24;81.00;99633.03;4121454;28;20207;-51
2022/01/01 01:54:15;;;;;;;21.98;20.13;;;;;;;10.16;81.19;99636.03;4127387;28;20573;-50
2022/01/01 01:56:17;;;;;;;22.25;20.15;;;;;;;10.18;81.27;99636.63;4124431;28;20199;-52
2022/01/01 01:58:19;;;;;;;23.67;21.55;;;;;;;10.17;81.23;99632.22;4107817;28;20226;-50
2022/01/01 02:02:41;;;;;;;24.33;21.90;;;;;;;10.27;80.95;99629.88;4107302;28;20831;-52
2022/01/01 02:04:43;;;;;;;25.60;23.05;;;;;;;10.24;80.73;99641.22;4108575;28;20230;-52
2022/01/01 02:06:44;;;;;;;24.33;22.08;;;;;;;10.11;81.18;99638.59;4107826;28;20206;-52
2022/01/01 02:08:49;;;;;;;22.88;20.50;;;;;;;10.04;81.31;99638.63;4110505;28;20254;-52
2022/01/01 02:10:52;;;;;;;22.33;19.90;;;;;;;10.15;81.36;99640.66;4109308;28;20827;-52
2022/01/01 02:12:56;;;;;;;24.65;22.05;;;;;;;10.10;81.30;99637.75;4110092;28;20230;-52
2022/01/01 02:19:01;;;;;;;23.67;21.30;;;;;;;10.06;81.60;99641.13;4102036;28;20250;-52
2022/01/01 02:21:03;;;;;;;25.35;22.70;;;;;;;10.03;81.57;99644.28;4106679;28;20275;-52
2022/01/01 02:23:10;;;;;;;27.85;21.63;;;;;;;10.02;82.00;99646.16;4108532;28;20688;-52
2022/01/01 02:25:13;;;;;;;22.50;20.30;;;;;;;10.08;81.62;99649.97;4107076;28;20629;-52
2022/01/01 02:27:15;;;;;;;23.27;21.20;;;;;;;10.15;81.74;99656.25;4122924;28;20234;-53
2022/01/01 02:29:17;;;;;;;25.25;22.80;;;;;;;10.15;81.38;99650.78;4120276;28;20312;-52
2022/01/01 02:31:18;;;;;;;22.83;20.90;;;;;;;10.21;81.20;99645.25;4105117;28;20619;-52
2022/01/01 02:33:20;;;;;;;26.73;23.80;;;;;;;10.09;81.70;99641.53;4107121;28;20276;-52
2022/01/01 02:35:22;;;;;;;25.88;23.15;;;;;;;10.17;81.73;99643.19;4108503;28;20277;-52
2022/01/01 02:37:24;;;;;;;24.95;22.48;;;;;;;10.06;81.76;99641.13;4106885;28;20207;-52
2022/01/01 02:39:25;;;;;;;26.27;23.45;;;;;;;10.15;81.77;99639.84;4124110;28;20262;-51
2022/01/01 02:41:27;;;;;;;30.42;22.38;;;;;;;10.06;81.79;99638.38;4110331;28;20241;-52
2022/01/01 02:43:31;;;;;;;25.50;23.13;;;;;;;10.12;81.93;99634.78;4121577;28;20615;-52
2022/01/01 02:45:33;;;;;;;23.58;21.15;;;;;;;10.09;81.89;99629.78;4101559;28;20242;-51
2022/01/01 02:47:35;;;;;;;23.67;21.25;;;;;;;10.21;81.53;99628.00;4093137;28;20240;-52
2022/01/01 02:49:37;;;;;;;24.85;22.27;;;;;;;10.15;81.29;99624.25;4106974;28;20249;-52
2022/01/01 02:51:39;;;;;;;23.85;21.65;;;;;;;10.10;81.77;99615.88;4108279;28;20234;-52
2022/01/01 02:53:41;;;;;;;23.08;20.92;;;;;;;10.11;81.71;99622.16;4106802;28;20206;-52
2022/01/01 02:55:44;;;;;;;24.60;21.92;;;;;;;10.00;81.83;99614.63;4108467;28;20276;-51
2022/01/01 02:57:45;;;;;;;24.02;21.35;;;;;;;10.06;81.99;99613.78;4103300;28;20337;-51
2022/01/01 02:59:48;;;;;;;22.63;20.50;;;;;;;10.18;81.74;99617.50;4105117;28;20234;-53
2022/01/01 03:01:50;;;;;;;21.70;19.70;;;;;;;10.07;81.83;99610.00;4106869;28;20210;-52
2022/01/01 03:03:51;;;;;;;22.38;20.38;;;;;;;10.10;81.63;99620.50;4108967;28;20207;-52
2022/01/01 03:05:53;;;;;;;22.73;20.70;;;;;;;10.11;81.62;99616.69;4109763;28;20254;-52
2022/01/01 03:07:55;;;;;;;26.20;21.85;;;;;;;10.23;81.17;99604.00;4119795;28;20234;-52
2022/01/01 03:09:57;;;;;;;22.65;20.17;;;;;;;10.06;81.69;99602.84;4123954;28;20209;-52
2022/01/01 03:11:58;;;;;;;22.25;20.23;;;;;;;10.09;81.68;99596.94;4124778;28;20562;-51
2022/01/01 03:14:00;;;;;;;22.40;19.92;;;;;;;10.08;81.47;99592.53;4109360;28;20741;-53
2022/01/01 03:16:02;;;;;;;20.70;18.92;;;;;;;10.07;81.54;99588.13;4108473;28;20230;-53
2022/01/01 03:18:04;;;;;;;19.50;17.90;;;;;;;10.03;81.67;99581.38;4110935;28;20269;-52
2022/01/01 03:20:06;;;;;;;21.25;19.33;;;;;;;10.00;81.90;99577.19;4105199;28;20215;-51
2022/01/01 03:22:08;;;;;;;24.60;20.90;;;;;;;10.02;81.73;99580.53;4108788;28;20692;-51
2022/01/01 03:24:09;;;;;;;24.80;19.20;;;;;;;9.98;82.07;99576.59;4108995;28;20207;-51
2022/01/01 03:26:11;;;;;;;24.80;21.92;;;;;;;9.85;82.21;99579.41;4110349;28;20415;-52
2022/01/01 03:28:13;;;;;;;24.65;22.13;;;;;;;9.86;82.18;99585.69;4108024;28;20288;-51
2022/01/01 03:30:15;;;;;;;25.77;22.50;;;;;;;9.87;82.05;99588.22;4125259;28;20468;-52
2022/01/01 03:32:17;;;;;;;24.75;22.25;;;;;;;9.94;81.96;99599.13;4110673;28;20344;-53
2022/01/01 03:34:21;;;;;;;23.35;21.25;;;;;;;9.90;82.03;99608.81;4094392;28;20210;-52
2022/01/01 03:36:23;;;;;;;25.67;22.90;;;;;;;9.91;82.19;99602.28;4109554;28;20214;-52
2022/01/01 03:38:24;;;;;;;22.77;20.60;;;;;;;9.90;82.17;99604.19;4118734;28;20229;-53
2022/01/01 03:40:26;;;;;;;22.63;20.35;;;;;;;9.91;82.55;99621.41;4107833;28;20304;-52
2022/01/01 03:42:28;;;;;;;21.38;19.27;;;;;;;9.92;82.59;99628.56;4121224;28;20277;-53
2022/01/01 03:44:29;;;;;;;25.20;21.48;;;;;;;10.01;82.35;99621.78;4109586;28;20227;-53
2022/01/01 03:46:32;;;;;;;22.45;20.40;;;;;;;9.97;82.35;99626.88;4121880;28;20687;-51
2022/01/01 03:48:33;;;;;;;20.52;18.75;;;;;;;9.99;82.61;99630.22;4109100;28;20293;-51
2022/01/01 03:50:35;;;;;;;21.38;19.45;;;;;;;9.99;82.41;99623.88;4102343;28;20269;-51
2022/01/01 03:52:42;;;;;;;25.83;19.80;;;;;;;10.03;82.63;99619.66;4106052;28;20660;-52
2022/01/01 03:54:43;;;;;;;21.05;19.30;;;;;;;10.05;82.50;99612.09;4108746;28;20216;-52
2022/01/01 03:56:45;;;;;;;22.05;20.00;;;;;;;10.06;82.10;99620.09;4112290;28;20361;-50
2022/01/01 03:58:47;;;;;;;22.80;20.67;;;;;;;10.02;82.08;99615.25;4121363;28;20238;-52
2022/01/01 04:00:48;;;;;;;23.90;21.65;;;;;;;10.04;82.33;99610.44;4118684;28;20218;-52
2022/01/01 04:02:50;;;;;;;22.38;20.38;;;;;;;10.05;82.15;99618.44;4103462;28;20691;-52
2022/01/01 04:04:52;;;;;;;21.50;19.45;;;;;;;10.15;81.41;99607.00;4107525;28;20326;-52
2022/01/01 04:06:54;;;;;;;22.77;20.42;;;;;;;10.00;82.01;99611.88;4108754;28;20624;-51
2022/01/01 04:08:56;;;;;;;22.42;20.33;;;;;;;10.04;81.44;99599.50;4129180;28;20727;-52
2022/01/01 04:10:57;;;;;;;22.83;20.50;;;;;;;9.95;81.94;99600.78;4105210;28;20246;-52
2022/01/01 04:13:01;;;;;;;22.83;20.45;;;;;;;9.91;81.99;99610.47;4104211;28;20301;-52
2022/01/01 04:15:03;;;;;;;23.80;21.52;;;;;;;9.91;81.89;99605.00;4109045;28;20203;-52
2022/01/01 04:17:10;;;;;;;21.35;19.40;;;;;;;9.90;82.42;99606.06;4124362;28;20280;-53
2022/01/01 04:19:12;;;;;;;21.40;19.13;;;;;;;9.92;82.42;99618.47;4107658;28;20223;-53
2022/01/01 04:21:14;;;;;;;21.02;19.20;;;;;;;9.94;82.28;99621.00;4107471;28;20206;-53
2022/01/01 04:23:16;;;;;;;21.35;19.23;;;;;;;9.96;82.47;99616.13;4108584;28;20301;-52
2022/01/01 04:25:18;;;;;;;22.17;20.23;;;;;;;9.98;82.09;99622.22;4104779;28;20259;-51
2022/01/01 04:27:20;;;;;;;21.73;19.83;;;;;;;9.98;82.44;99627.69;4104877;28;20277;-52
2022/01/01 04:29:23;;;;;;;20.88;19.27;;;;;;;10.06;82.08;99630.19;4124207;28;20225;-52
2022/01/01 04:31:25;;;;;;;19.70;17.80;;;;;;;10.09;82.10;99636.06;4111088;28;20246;-52
2022/01/01 04:33:27;;;;;;;20.23;18.10;;;;;;;10.06;81.85;99632.94;4108369;28;20210;-51
2022/01/01 04:35:28;;;;;;;20.27;18.38;;;;;;;10.05;81.61;99631.25;4109169;28;20960;-52
2022/01/01 04:37:30;;;;;;;20.50;18.58;;;;;;;10.02;81.86;99621.56;4109031;28;20651;-51
2022/01/01 04:39:32;;;;;;;19.58;17.85;;;;;;;10.13;81.58;99628.25;4105555;28;20305;-53
2022/01/01 04:41:33;;;;;;;21.52;18.58;;;;;;;10.04;81.61;99621.38;4106378;28;20219;-53
2022/01/01 04:43:35;;;;;;;21.42;19.35;;;;;;;9.95;82.11;99615.28;4123131;28;20213;-52
2022/01/01 04:45:37;;;;;;;19.65;17.90;;;;;;;10.00;81.63;99620.94;4121310;28;20225;-51
2022/01/01 04:47:39;;;;;;;22.58;19.90;;;;;;;9.96;81.91;99603.28;4122713;28;20238;-52
2022/01/01 04:49:41;;;;;;;21.13;19.13;;;;;;;9.91;81.81;99610.47;4102785;28;20231;-52
2022/01/01 04:51:42;;;;;;;21.73;19.67;;;;;;;9.88;82.11;99606.28;4104503;28;20250;-52
2022/01/01 04:53:45;;;;;;;22.25;19.83;;;;;;;9.86;82.33;99610.28;4118216;28;21181;-51
2022/01/01 04:55:48;;;;;;;22.67;18.67;;;;;;;9.82;82.22;99600.88;4120570;28;20209;-52
2022/01/01 04:57:50;;;;;;;22.15;20.25;;;;;;;9.87;82.36;99604.63;4101845;28;20325;-52
2022/01/01 04:59:51;;;;;;;21.35;19.42;;;;;;;9.85;82.13;99608.63;4107694;28;20471;-53
2022/01/01 05:01:53;;;;;;;19.63;17.88;;;;;;;9.86;82.37;99610.28;4105316;28;20245;-52
2022/01/01 05:04:01;;;;;;;24.40;19.50;;;;;;;9.90;82.46;99611.53;4112408;28;20590;-52
2022/01/01 05:06:02;;;;;;;22.30;19.50;;;;;;;9.98;82.05;99616.75;4108565;28;20235;-52
2022/01/01 05:08:04;;;;;;;23.40;20.27;;;;;;;9.97;81.91;99620.53;4102366;28;20254;-52
2022/01/01 05:10:07;;;;;;;20.15;18.42;;;;;;;9.91;81.91;99615.94;4102129;28;20265;-53
2022/01/01 05:12:09;;;;;;;20.38;18.58;;;;;;;9.84;82.12;99616.00;4103884;28;20204;-53
2022/01/01 05:14:11;;;;;;;20.55;18.33;;;;;;;9.93;81.90;99613.81;4102798;28;20585;-53
2022/01/01 05:16:17;;;;;;;20.45;18.58;;;;;;;9.91;82.10;99615.94;4105352;28;20599;-53
2022/01/01 05:18:19;;;;;;;19.88;17.70;;;;;;;9.81;82.44;99610.13;4105432;28;20227;-52
2022/01/01 05:20:21;;;;;;;20.95;18.92;;;;;;;9.80;82.38;99619.38;4107660;28;20692;-53
2022/01/01 05:22:22;;;;;;;21.63;19.30;;;;;;;9.91;81.85;99621.41;4103765;28;20246;-52
2022/01/01 05:24:24;;;;;;;22.42;19.23;;;;;;;9.89;82.26;99629.00;4109241;28;20210;-52
2022/01/01 05:26:32;;;;;;;19.02;17.40;;;;;;;10.06;81.72;99630.19;4111851;28;20254;-52
2022/01/01 05:28:34;;;;;;;18.30;16.40;;;;;;;9.98;81.58;99627.69;4110427;28;20231;-52
2022/01/01 05:30:36;;;;;;;18.08;16.42;;;;;;;9.92;81.97;99623.94;4108534;28;20263;-52
2022/01/01 05:32:38;;;;;;;19.40;17.65;;;;;;;9.98;81.88;99635.88;4107188;28;20203;-52
2022/01/01 05:34:39;;;;;;;20.30;18.35;;;;;;;9.92;81.88;99628.56;4105912;28;20548;-52
2022/01/01 05:36:41;;;;;;;18.00;16.40;;;;;;;9.95;82.02;99636.34;4104711;28;20239;-52
2022/01/01 05:38:44;;;;;;;17.83;16.27;;;;;;;9.96;81.92;99635.28;4107262;28;20239;-52
2022/01/01 05:40:46;;;;;;;19.27;17.67;;;;;;;9.94;81.74;99631.94;4124766;28;20210;-52
2022/01/01 05:42:47;;;;;;;20.10;17.35;;;;;;;9.92;82.06;99634.03;4102201;28;20385;-50
2022/01/01 05:44:49;;;;;;;19.00;17.33;;;;;;;9.88;81.91;99632.81;4105929;28;21968;-51
2022/01/01 05:46:53;;;;;;;18.90;17.38;;;;;;;9.88;81.88;99627.34;4108710;28;20214;-52
2022/01/01 05:48:54;;;;;;;20.17;18.27;;;;;;;9.83;81.92;99621.69;4105670;28;20222;-51
2022/01/01 05:50:56;;;;;;;18.98;17.38;;;;;;;9.79;81.85;99613.06;4104969;28;20257;-53
2022/01/01 05:52:58;;;;;;;19.95;18.20;;;;;;;9.76;82.04;99620.88;4122080;28;20612;-52
2022/01/01 05:55:00;;;;;;;19.38;17.60;;;;;;;9.83;82.19;99608.00;4104346;28;20211;-52
2022/01/01 05:57:02;;;;;;;18.40;16.55;;;;;;;9.85;81.80;99597.69;4107374;28;20216;-52
2022/01/01 05:59:04;;;;;;;19.80;18.02;;;;;;;9.82;81.71;99598.97;4112177;28;20241;-53
2022/01/01 06:01:06;;;;;;;17.92;16.20;;;;;;;9.77;82.26;99596.06;4123793;28;20216;-53
2022/01/01 06:03:08;;;;;;;21.13;19.27;;;;;;;9.90;82.04;99592.41;4109035;28;20297;-52
2022/01/01 06:05:11;;;;;;;19.27;17.67;;;;;;;9.81;81.93;99593.72;4110093;28;20653;-51
2022/01/01 06:07:13;;;;;;;26.50;18.15;;;;;;;9.82;81.91;99595.41;4109320;28;20706;-52
2022/01/01 06:09:15;;;;;;;20.38;18.20;;;;;;;9.81;81.50;99602.75;4122041;28;20217;-52
2022/01/01 06:11:16;;;;;;;21.10;16.90;;;;;;;9.91;81.27;99600.41;4105286;28;20636;-51
2022/01/01 06:13:18;;;;;;;20.17;18.20;;;;;;;9.89;81.35;99605.22;4121922;28;20202;-52
2022/01/01 06:15:20;;;;;;;17.20;15.38;;;;;;;9.84;81.33;99604.22;4091084;28;20938;-52
2022/01/01 06:17:22;;;;;;;17.35;15.95;;;;;;;9.84;81.29;99598.75;4120569;28;20237;-51
2022/01/01 06:19:24;;;;;;;18.50;16.13;;;;;;;9.80;81.48;99581.09;4122735;28;20289;-52
2022/01/01 06:21:25;;;;;;;18.85;15.90;;;;;;;9.78;81.42;99583.22;4106894;28;20271;-52
2022/01/01 06:23:27;;;;;;;18.17;16.52;;;;;;;9.64;81.75;99581.63;4093000;28;20697;-52
2022/01/01 06:25:29;;;;;;;18.38;16.77;;;;;;;9.59;81.85;99582.28;4118948;28;20318;-51
2022/01/01 06:27:31;;;;;;;18.92;17.35;;;;;;;9.65;81.98;99588.75;4109909;28;20236;-52
2022/01/01 06:29:32;;;;;;;17.30;15.57;;;;;;;9.59;82.16;99589.63;4122987;28;20206;-51
2022/01/01 06:31:34;;;;;;;19.60;16.48;;;;;;;9.56;81.87;99595.53;4089202;28;20712;-51
2022/01/01 06:33:36;;;;;;;16.80;15.40;;;;;;;9.50;81.95;99604.59;4105319;28;20632;-51
2022/01/01 06:35:42;;;;;;;22.65;17.55;;;;;;;9.51;82.23;99598.94;4086828;28;20194;-52
2022/01/01 06:37:43;;;;;;;16.95;15.45;;;;;;;9.48;81.98;99610.28;4103570;28;20238;-52
2022/01/01 06:39:45;;;;;;;16.58;14.50;;;;;;;9.53;81.77;99604.16;4100194;28;20214;-52
2022/01/01 06:41:47;;;;;;;18.10;16.42;;;;;;;9.56;81.61;99607.28;4105990;28;20269;-52
2022/01/01 06:43:48;;;;;;;27.17;14.90;;;;;;;9.53;81.49;99612.34;4103440;28;20776;-52
2022/01/01 06:45:50;;;;;;;15.45;14.05;;;;;;;9.56;81.46;99611.94;4107489;28;20724;-52
2022/01/01 06:47:52;;;;;;;14.93;13.52;;;;;;;9.53;81.98;99612.34;4105920;28;20262;-53
2022/01/01 06:49:54;;;;;;;14.32;13.13;;;;;;;9.55;81.41;99615.72;4104689;28;20700;-52
2022/01/01 06:51:55;;;;;;;16.08;14.52;;;;;;;9.51;81.84;99618.06;4103135;28;20207;-51
2022/01/01 06:53:57;;;;;;;14.50;13.20;;;;;;;9.42;82.17;99616.59;4118441;28;20242;-52
2022/01/01 06:56:04;;;;;;;15.60;13.90;;;;;;;9.45;81.96;99612.59;4124155;28;20684;-52
2022/01/01 06:58:06;;;;;;;16.02;14.73;;;;;;;9.56;81.54;99622.84;4102106;28;20345;-51
2022/01/01 07:00:09;;;;;;;15.48;14.27;;;;;;;9.50;81.53;99624.56;4121422;28;20210;-51
2022/01/01 07:02:13;;;;;;;13.40;11.57;;;;;;;9.44;81.59;99616.38;4089092;28;20314;-52
2022/01/01 07:04:15;;;;;;;14.95;13.55;;;;;;;9.37;82.30;99624.63;4106301;28;20647;-52
2022/01/01 07:06:17;;;;;;;14.65;13.50;;;;;;;9.41;82.09;99625.03;4107955;28;20657;-52
2022/01/01 07:08:18;;;;;;;14.48;12.85;;;;;;;9.32;82.27;99626.28;4101710;28;20601;-52
2022/01/01 07:10:20;;;;;;;14.43;13.18;;;;;;;9.37;82.21;99635.53;4108650;28;20209;-53
2022/01/01 07:12:22;;;;;;;13.63;12.50;;;;;;;9.38;82.18;99631.75;4089259;28;20203;-53
2022/01/01 07:14:23;;;;;;;14.68;13.40;;;;;;;9.36;81.99;99628.38;4099233;28;20242;-52
2022/01/01 07:16:26;;;;;;;14.20;13.00;;;;;;;9.34;82.44;99626.94;4100556;28;20728;-52
2022/01/01 07:18:28;;;;;;;15.27;13.88;;;;;;;9.32;82.17;99637.22;4106516;28;21646;-52
2022/01/01 07:20:30;;;;;;;14.30;12.85;;;;;;;9.32;82.28;99631.75;4104313;28;20207;-53
2022/01/01 07:22:31;;;;;;;15.50;14.20;;;;;;;9.40;82.24;99639.72;4073144;28;20231;-52
2022/01/01 07:24:37;;;;;;;14.50;13.05;;;;;;;9.41;82.29;99646.88;4119579;28;20577;-53
2022/01/01 07:26:39;;;;;;;14.85;13.40;;;;;;;9.34;82.58;99646.06;4092729;28;20222;-53
2022/01/01 07:28:41;;;;;;;14.10;12.90;;;;;;;9.42;82.42;99654.03;4111044;28;20743;-53
2022/01/01 07:30:44;;;;;;;13.85;12.73;;;;;;;9.43;82.14;99661.16;4092365;28;20215;-53
2022/01/01 07:32:47;;;;;;;14.52;13.05;;;;;;;9.43;82.15;99655.69;4123113;28;20206;-52
2022/01/01 07:34:48;;;;;;;14.48;13.27;;;;;;;9.45;82.48;99667.22;4105803;28;20240;-53
2022/01/01 07:36:50;;;;;;;14.35;13.15;;;;;;;9.51;82.38;99674.56;4107158;28;20269;-53
2022/01/01 07:38:52;;;;;;;14.30;11.63;;;;;;;9.53;82.33;99675.19;4109113;28;20309;-52
2022/01/01 07:40:55;;;;;;;13.48;12.40;;;;;;;9.57;82.60;99669.09;4107202;28;20246;-53
2022/01/01 07:42:56;;;;;;;13.25;12.20;;;;;;;9.51;82.15;99689.09;4108437;28;20218;-52
2022/01/01 07:44:59;;;;;;;13.18;12.07;;;;;;;9.52;82.49;99698.09;4108371;28;20221;-52
2022/01/01 07:47:03;;;;;;;13.02;12.00;;;;;;;9.54;82.52;99693.28;4108878;28;20238;-52
2022/01/01 07:49:05;;;;;;;17.27;14.63;;;;;;;9.56;82.49;99699.38;4107033;28;20618;-50
2022/01/01 07:51:07;;;;;;;11.95;10.82;;;;;;;9.58;82.30;99697.25;4121040;28;20249;-51
2022/01/01 07:53:10;;;;;;;11.48;10.55;;;;;;;9.60;82.44;99700.59;4123699;28;20206;-51
2022/01/01 07:55:12;;;;;;;12.35;11.45;;;;;;;9.78;81.99;99695.28;4105602;28;20238;-51
2022/01/01 07:57:13;;;;;;;11.40;10.40;;;;;;;9.69;82.15;99699.31;4104604;28;20223;-52
2022/01/01 07:59:15;;;;;;;12.10;11.15;;;;;;;9.68;82.10;99693.00;4104914;28;20274;-52
2022/01/01 08:01:17;;;;;;;10.05;9.25;;;;;;;9.70;81.97;99692.81;4108123;28;20297;-53
2022/01/01 08:03:19;;;;;;;12.32;11.32;;;;;;;9.80;81.85;99690.44;4108672;28;20211;-51
2022/01/01 08:05:21;;;;;;;11.68;10.68;;;;;;;9.69;81.77;99683.75;4117630;28;20230;-52
2022/01/01 08:07:23;;;;;;;11.40;10.45;;;;;;;9.61;81.58;99684.00;4119608;28;21094;-53
2022/01/01 08:09:44;;;;;;;11.75;10.70;;;;;;;9.65;81.89;99687.13;4110627;28;20250;-52
2022/01/01 08:11:56;;;;;;;12.07;11.18;;;;;;;9.70;81.93;99690.06;4109409;28;20733;-52
2022/01/01 08:14:05;;;;;;;10.32;9.43;;;;;;;9.67;81.89;99695.97;4110048;28;20222;-52
2022/01/01 08:16:54;;;;;;;11.20;10.35;;;;;;;9.76;81.08;99697.41;4110841;28;20197;-51
2022/01/01 08:19:01;;;;;;;12.23;11.13;;;;;;;9.74;81.53;99696.78;4107319;28;20313;-52
2022/01/01 08:21:02;;;;;;;11.30;10.40;;;;;;;9.77;81.55;99696.34;4110839;28;20637;-52
2022/01/01 08:23:04;;;;;;;11.13;10.23;;;;;;;9.77;81.35;99696.34;4108829;28;20699;-52
2022/01/01 08:25:06;;;;;;;11.20;10.20;;;;;;;9.76;81.50;99689.22;4124606;28;20261;-50
2022/01/01 08:27:08;;;;;;;12.45;11.45;;;;;;;9.81;81.75;99681.22;4124683;28;20313;-50
2022/01/01 08:29:10;;;;;;;12.05;10.98;;;;;;;9.79;81.37;99694.22;4111758;28;20246;-50
2022/01/01 08:31:12;;;;;;;11.63;10.73;;;;;;;9.80;81.74;99690.44;4109224;28;20289;-50
2022/01/01 08:33:15;;;;;;;11.98;10.88;;;;;;;9.74;81.42;99691.31;4109722;28;20211;-50
2022/01/01 08:35:17;;;;;;;11.88;10.80;;;;;;;9.77;81.40;99690.88;4101271;28;20218;-50
2022/01/01 08:37:18;;;;;;;11.27;10.48;;;;;;;9.74;81.58;99686.69;4082482;28;20203;-51
2022/01/01 08:39:20;;;;;;;13.27;12.18;;;;;;;9.76;81.62;99679.09;4096732;28;20234;-51
2022/01/01 08:41:22;;;;;;;12.05;11.05;;;;;;;9.73;81.53;99673.22;4113952;28;20845;-51
2022/01/01 08:43:25;;;;;;;15.40;14.07;;;;;;;9.74;81.37;99672.19;4090177;28;20254;-51
2022/01/01 08:45:26;;;;;;;12.25;11.05;;;;;;;9.73;81.57;99679.53;4106406;28;20246;-52
2022/01/01 08:47:28;;;;;;;11.93;10.93;;;;;;;9.77;81.36;99679.94;4092748;28;20278;-51
2022/01/01 08:49:30;;;;;;;13.45;12.15;;;;;;;9.79;81.56;99677.81;4090239;28;20212;-51
2022/01/01 08:51:35;;;;;;;12.70;11.70;;;;;;;9.82;81.66;99682.88;4106056;28;20245;-50
2022/01/01 08:53:37;;;;;;;12.95;11.75;;;;;;;9.83;81.18;99685.38;4088923;28;20277;-50
2022/01/01 08:55:39;;;;;;;12.77;11.57;;;;;;;9.87;81.00;99674.88;4100261;28;20688;-50
2022/01/01 08:57:41;;;;;;;12.60;11.50;;;;;;;9.90;81.21;99679.91;4104924;28;20705;-51
2022/01/01 08:59:42;;;;;;;12.15;11.05;;;;;;;9.88;81.20;99665.63;4102554;28;20317;-52
2022/01/01 09:01:44;;;;;;;13.57;12.25;;;;;;;9.88;81.00;99665.63;4105254;28;20215;-51
2022/01/01 09:03:46;;;;;;;12.63;11.63;;;;;;;9.91;81.11;99659.69;4107325;28;20215;-51
2022/01/01 09:05:48;;;;;;;13.70;12.40;;;;;;;10.01;81.25;99673.75;4119855;28;20217;-51
2022/01/01 09:08:06;;;;;;;12.95;11.82;;;;;;;10.14;81.37;99677.28;4102762;28;20257;-51
2022/01/01 09:10:08;;;;;;;12.77;11.70;;;;;;;10.17;81.27;99671.38;4102255;28;20607;-51
2022/01/01 09:12:14;;;;;;;11.88;10.98;;;;;;;10.20;80.88;99670.06;4106607;28;20293;-51
2022/01/01 09:14:17;;;;;;;12.18;11.07;;;;;;;10.25;80.66;99673.84;4107620;28;20763;-51
2022/01/01 09:16:23;;;;;;;11.73;10.68;;;;;;;10.35;80.02;99678.84;4109981;28;20210;-52
2022/01/01 09:18:24;;;;;;;11.82;10.82;;;;;;;10.36;80.06;99675.88;4108478;28;20293;-50
2022/01/01 09:20:26;;;;;;;12.65;11.70;;;;;;;10.41;79.80;99677.97;4108627;28;20710;-50
2022/01/01 09:22:28;;;;;;;11.27;10.27;;;;;;;10.45;79.51;99669.09;4111194;28;20669;-51
2022/01/01 09:24:30;;;;;;;12.60;11.50;;;;;;;10.42;79.60;99674.97;4109405;28;20215;-51
2022/01/01 09:26:32;;;;;;;11.77;10.77;;;;;;;10.50;79.72;99676.63;4108280;28;20491;-50
2022/01/01 09:28:34;;;;;;;12.75;11.60;;;;;;;10.57;79.30;99670.06;4094045;28;20235;-52
2022/01/01 09:30:36;;;;;;;10.40;9.60;;;;;;;10.71;79.44;99668.03;4108601;28;20234;-50
2022/01/01 09:32:38;;;;;;;14.43;11.02;;;;;;;10.69;79.41;99670.19;4111212;28;20578;-52
2022/01/01 09:34:39;;;;;;;11.77;10.88;;;;;;;10.77;79.46;99674.31;4109552;28;20286;-50